Pagina principale
METAR-TAF:

METAR-TAF

Aeroporti :

Aeroporto di Cuneo-Levaldigi

Cuneo, Italia

latitudine: 44-32-47N, longitudine: 007-37-20E, altezza: 386 m

Osservazione

Il bollettino è stato emesso 14 minuti fa, alle 23:20 UTC
Vento 3 kt da ovest/sud-ovest, variando fra sud/sud-ovest e ovest
Temperature 10°C
Umidità 87%
Pressione 1008 hPa
Visibilità 10 km o più

METAR: LIMZ 152320Z AUTO 25003KT 200V280 9999 NCD 10/08 Q1008

Ora: 01:34 (23:34 UTC)

Previsione

Il bollettino è stato emesso 6 ore e 34 minuti fa, alle 17:00 UTC
Previsione valida dal 15 alle 18 UTC al 16 alle 18 UTC
Vento 5 kt da direzioni variabili
Visibilità 10 km o più
Nuvoloso ad un'altezza di 5000 ft
Temporaneamente
dal 16 alle 02 UTC al 16 alle 06 UTC
Visibilità: 3000 m
foschia

TAF: LIMZ 151700Z 1518/1618 VRB05KT 9999 BKN050 TEMPO 1602/1606 3000 BR

Osservazioni e previsioni meteorologiche di più di 4000 aeroporti (messaggi METAR e TAF).

Le stazioni disponibili sono rappresentate dai dischi gialli e rossi sulla carta.

Puntare il mouse per vedere il nome della stazione.

Clicca sopra per visualizzare le osservazioni e previsioni meteorologiche.

Per cambiare la mappa : fare clic sui pulsanti verdi con una croce nera per ingrandire, il pulsante verde con un trattino per diminuire, o sulla freccia verde per le mappe adiacenti.


METAR-TAF: